sensor_id;sensor_type;location;lat;lon;timestamp;temperature;humidity
1025;DHT22;501;48.214;11.350;2023-01-19T00:00:24;0.70;52.30
1025;DHT22;501;48.214;11.350;2023-01-19T00:02:50;0.70;52.10
1025;DHT22;501;48.214;11.350;2023-01-19T00:05:16;0.70;52.20
1025;DHT22;501;48.214;11.350;2023-01-19T00:07:42;0.70;51.20
1025;DHT22;501;48.214;11.350;2023-01-19T00:10:08;0.80;51.20
1025;DHT22;501;48.214;11.350;2023-01-19T00:12:34;0.80;50.80
1025;DHT22;501;48.214;11.350;2023-01-19T00:15:00;0.80;50.80
1025;DHT22;501;48.214;11.350;2023-01-19T00:17:25;0.70;50.30
1025;DHT22;501;48.214;11.350;2023-01-19T00:19:51;0.70;50.70
1025;DHT22;501;48.214;11.350;2023-01-19T00:22:16;0.70;50.60
1025;DHT22;501;48.214;11.350;2023-01-19T00:24:42;0.70;51.30
1025;DHT22;501;48.214;11.350;2023-01-19T00:27:09;0.70;50.40
1025;DHT22;501;48.214;11.350;2023-01-19T00:29:35;0.70;50.20
1025;DHT22;501;48.214;11.350;2023-01-19T00:32:01;0.70;49.80
1025;DHT22;501;48.214;11.350;2023-01-19T00:34:27;0.70;49.90
1025;DHT22;501;48.214;11.350;2023-01-19T00:37:10;0.70;49.70
1025;DHT22;501;48.214;11.350;2023-01-19T00:39:36;0.70;49.60
1025;DHT22;501;48.214;11.350;2023-01-19T00:42:02;0.70;50.00
1025;DHT22;501;48.214;11.350;2023-01-19T00:44:46;0.70;49.40
1025;DHT22;501;48.214;11.350;2023-01-19T00:47:12;0.70;49.40
1025;DHT22;501;48.214;11.350;2023-01-19T00:49:37;0.70;48.90
1025;DHT22;501;48.214;11.350;2023-01-19T00:52:03;0.70;49.40
1025;DHT22;501;48.214;11.350;2023-01-19T00:54:29;0.70;49.30
1025;DHT22;501;48.214;11.350;2023-01-19T00:56:54;0.70;50.00
1025;DHT22;501;48.214;11.350;2023-01-19T00:59:20;0.70;50.10
1025;DHT22;501;48.214;11.350;2023-01-19T01:01:46;0.70;50.60
1025;DHT22;501;48.214;11.350;2023-01-19T01:04:11;0.70;50.70
1025;DHT22;501;48.214;11.350;2023-01-19T01:06:38;0.70;50.70
1025;DHT22;501;48.214;11.350;2023-01-19T01:09:03;0.60;50.90
1025;DHT22;501;48.214;11.350;2023-01-19T01:11:37;0.70;50.70
1025;DHT22;501;48.214;11.350;2023-01-19T01:14:04;0.60;50.60
1025;DHT22;501;48.214;11.350;2023-01-19T01:16:29;0.60;51.00
1025;DHT22;501;48.214;11.350;2023-01-19T01:18:55;0.60;50.90
1025;DHT22;501;48.214;11.350;2023-01-19T01:21:21;0.60;50.60
1025;DHT22;501;48.214;11.350;2023-01-19T01:23:46;0.50;50.40
1025;DHT22;501;48.214;11.350;2023-01-19T01:26:12;0.50;50.50
1025;DHT22;501;48.214;11.350;2023-01-19T01:28:37;0.60;50.60
1025;DHT22;501;48.214;11.350;2023-01-19T01:31:03;0.50;50.50
1025;DHT22;501;48.214;11.350;2023-01-19T01:33:29;0.60;50.90
1025;DHT22;501;48.214;11.350;2023-01-19T01:35:54;0.60;51.20
1025;DHT22;501;48.214;11.350;2023-01-19T01:38:20;0.60;51.10
1025;DHT22;501;48.214;11.350;2023-01-19T01:40:45;0.60;51.50
1025;DHT22;501;48.214;11.350;2023-01-19T01:43:12;0.60;51.90
1025;DHT22;501;48.214;11.350;2023-01-19T01:45:39;0.60;51.40
1025;DHT22;501;48.214;11.350;2023-01-19T01:50:42;0.50;51.90
1025;DHT22;501;48.214;11.350;2023-01-19T01:53:32;0.50;52.10
1025;DHT22;501;48.214;11.350;2023-01-19T01:55:58;0.50;51.70
1025;DHT22;501;48.214;11.350;2023-01-19T01:58:26;0.50;51.40
1025;DHT22;501;48.214;11.350;2023-01-19T02:00:52;0.50;50.90
1025;DHT22;501;48.214;11.350;2023-01-19T02:03:36;0.40;51.20
1025;DHT22;501;48.214;11.350;2023-01-19T02:06:03;0.50;51.30
1025;DHT22;501;48.214;11.350;2023-01-19T02:08:36;0.50;50.50
1025;DHT22;501;48.214;11.350;2023-01-19T02:11:22;0.40;50.40
1025;DHT22;501;48.214;11.350;2023-01-19T02:14:06;0.50;50.50
1025;DHT22;501;48.214;11.350;2023-01-19T02:16:33;0.50;50.50
1025;DHT22;501;48.214;11.350;2023-01-19T02:19:00;0.40;50.90
1025;DHT22;501;48.214;11.350;2023-01-19T02:24:15;0.40;51.10
1025;DHT22;501;48.214;11.350;2023-01-19T02:26:44;0.40;51.90
1025;DHT22;501;48.214;11.350;2023-01-19T02:29:13;0.40;52.20
1025;DHT22;501;48.214;11.350;2023-01-19T02:31:41;0.40;52.60
1025;DHT22;501;48.214;11.350;2023-01-19T02:34:09;0.40;52.30
1025;DHT22;501;48.214;11.350;2023-01-19T02:36:49;0.40;52.80
1025;DHT22;501;48.214;11.350;2023-01-19T02:39:19;0.40;52.50
1025;DHT22;501;48.214;11.350;2023-01-19T02:41:51;0.40;52.60
1025;DHT22;501;48.214;11.350;2023-01-19T02:44:18;0.40;52.80
1025;DHT22;501;48.214;11.350;2023-01-19T02:46:45;0.40;53.50
1025;DHT22;501;48.214;11.350;2023-01-19T02:49:10;0.40;52.40
1025;DHT22;501;48.214;11.350;2023-01-19T02:51:36;0.40;53.20
1025;DHT22;501;48.214;11.350;2023-01-19T02:54:09;0.40;53.50
1025;DHT22;501;48.214;11.350;2023-01-19T02:56:48;0.40;53.30
1025;DHT22;501;48.214;11.350;2023-01-19T03:10:21;0.40;52.30
1025;DHT22;501;48.214;11.350;2023-01-19T03:13:25;0.40;52.20
1025;DHT22;501;48.214;11.350;2023-01-19T03:16:45;0.40;51.80
1025;DHT22;501;48.214;11.350;2023-01-19T03:18:51;0.40;51.80
1025;DHT22;501;48.214;11.350;2023-01-19T03:21:22;0.40;50.80
1025;DHT22;501;48.214;11.350;2023-01-19T03:23:50;0.40;50.70
1025;DHT22;501;48.214;11.350;2023-01-19T03:26:23;0.30;51.00
1025;DHT22;501;48.214;11.350;2023-01-19T03:28:50;0.30;51.00
1025;DHT22;501;48.214;11.350;2023-01-19T03:31:20;0.30;51.20
1025;DHT22;501;48.214;11.350;2023-01-19T03:33:50;0.30;51.10
1025;DHT22;501;48.214;11.350;2023-01-19T03:36:24;0.30;51.20
1025;DHT22;501;48.214;11.350;2023-01-19T03:38:52;0.30;50.80
1025;DHT22;501;48.214;11.350;2023-01-19T03:41:20;0.30;51.00
1025;DHT22;501;48.214;11.350;2023-01-19T03:43:48;0.30;51.00
1025;DHT22;501;48.214;11.350;2023-01-19T03:46:16;0.30;50.30
1025;DHT22;501;48.214;11.350;2023-01-19T03:48:44;0.30;50.30
1025;DHT22;501;48.214;11.350;2023-01-19T03:51:10;0.20;50.20
1025;DHT22;501;48.214;11.350;2023-01-19T03:53:37;0.20;50.10
1025;DHT22;501;48.214;11.350;2023-01-19T03:56:03;0.20;50.00
1025;DHT22;501;48.214;11.350;2023-01-19T03:58:29;0.20;50.20
1025;DHT22;501;48.214;11.350;2023-01-19T04:00:54;0.10;50.10
1025;DHT22;501;48.214;11.350;2023-01-19T04:03:20;0.10;49.80
1025;DHT22;501;48.214;11.350;2023-01-19T04:05:46;0.10;49.80
1025;DHT22;501;48.214;11.350;2023-01-19T04:08:12;0.10;49.20
1025;DHT22;501;48.214;11.350;2023-01-19T04:10:37;0.10;49.40
1025;DHT22;501;48.214;11.350;2023-01-19T04:13:04;0.10;49.50
1025;DHT22;501;48.214;11.350;2023-01-19T04:15:30;0.10;49.20
1025;DHT22;501;48.214;11.350;2023-01-19T04:17:57;0.10;49.20
1025;DHT22;501;48.214;11.350;2023-01-19T04:20:23;0.10;49.10
1025;DHT22;501;48.214;11.350;2023-01-19T04:22:48;0.10;48.50
1025;DHT22;501;48.214;11.350;2023-01-19T04:25:14;0.10;48.50
1025;DHT22;501;48.214;11.350;2023-01-19T04:27:40;0.20;48.70
1025;DHT22;501;48.214;11.350;2023-01-19T04:30:06;0.20;48.20
1025;DHT22;501;48.214;11.350;2023-01-19T04:32:32;0.20;47.90
1025;DHT22;501;48.214;11.350;2023-01-19T04:34:58;0.10;47.60
1025;DHT22;501;48.214;11.350;2023-01-19T04:37:24;0.10;47.30
1025;DHT22;501;48.214;11.350;2023-01-19T04:39:49;0.10;47.00
1025;DHT22;501;48.214;11.350;2023-01-19T04:42:15;0.00;47.30
1025;DHT22;501;48.214;11.350;2023-01-19T04:44:41;0.00;47.30
1025;DHT22;501;48.214;11.350;2023-01-19T04:47:07;-0.10;47.30
1025;DHT22;501;48.214;11.350;2023-01-19T04:49:32;-0.10;47.40
1025;DHT22;501;48.214;11.350;2023-01-19T04:51:58;-0.20;47.70
1025;DHT22;501;48.214;11.350;2023-01-19T04:54:24;-0.20;47.80
1025;DHT22;501;48.214;11.350;2023-01-19T04:56:49;-0.20;47.80
1025;DHT22;501;48.214;11.350;2023-01-19T04:59:15;-0.30;47.80
1025;DHT22;501;48.214;11.350;2023-01-19T05:01:41;-0.30;47.70
1025;DHT22;501;48.214;11.350;2023-01-19T05:04:06;-0.30;47.70
1025;DHT22;501;48.214;11.350;2023-01-19T05:06:33;-0.40;48.30
1025;DHT22;501;48.214;11.350;2023-01-19T05:08:59;-0.40;48.30
1025;DHT22;501;48.214;11.350;2023-01-19T05:11:25;-0.40;48.40
1025;DHT22;501;48.214;11.350;2023-01-19T05:13:50;-0.50;48.60
1025;DHT22;501;48.214;11.350;2023-01-19T05:16:17;-0.50;48.60
1025;DHT22;501;48.214;11.350;2023-01-19T05:18:42;-0.50;48.30
1025;DHT22;501;48.214;11.350;2023-01-19T05:21:08;-0.50;48.40
1025;DHT22;501;48.214;11.350;2023-01-19T05:23:34;-0.60;48.40
1025;DHT22;501;48.214;11.350;2023-01-19T05:26:00;-0.60;48.20
1025;DHT22;501;48.214;11.350;2023-01-19T05:28:30;-0.60;48.10
1025;DHT22;501;48.214;11.350;2023-01-19T05:30:56;-0.60;48.30
1025;DHT22;501;48.214;11.350;2023-01-19T05:33:22;-0.70;48.30
1025;DHT22;501;48.214;11.350;2023-01-19T05:35:51;-0.70;48.90
1025;DHT22;501;48.214;11.350;2023-01-19T05:38:17;-0.70;48.50
1025;DHT22;501;48.214;11.350;2023-01-19T05:40:43;-0.70;48.50
1025;DHT22;501;48.214;11.350;2023-01-19T05:43:09;-0.70;48.30
1025;DHT22;501;48.214;11.350;2023-01-19T05:45:34;-0.70;48.20
1025;DHT22;501;48.214;11.350;2023-01-19T05:48:00;-0.70;48.40
1025;DHT22;501;48.214;11.350;2023-01-19T05:50:26;-0.70;48.40
1025;DHT22;501;48.214;11.350;2023-01-19T05:52:52;-0.70;48.40
1025;DHT22;501;48.214;11.350;2023-01-19T05:55:18;-0.60;48.60
1025;DHT22;501;48.214;11.350;2023-01-19T05:57:44;-0.60;48.30
1025;DHT22;501;48.214;11.350;2023-01-19T06:00:10;-0.70;48.40
1025;DHT22;501;48.214;11.350;2023-01-19T06:02:36;-0.70;48.60
1025;DHT22;501;48.214;11.350;2023-01-19T06:05:01;-0.70;48.30
1025;DHT22;501;48.214;11.350;2023-01-19T06:07:29;-0.70;48.30
1025;DHT22;501;48.214;11.350;2023-01-19T06:09:56;-0.60;48.10
1025;DHT22;501;48.214;11.350;2023-01-19T06:12:22;-0.60;47.90
1025;DHT22;501;48.214;11.350;2023-01-19T06:14:47;-0.60;47.40
1025;DHT22;501;48.214;11.350;2023-01-19T06:17:13;-0.60;46.90
1025;DHT22;501;48.214;11.350;2023-01-19T06:19:38;-0.60;47.00
1025;DHT22;501;48.214;11.350;2023-01-19T06:22:05;-0.60;47.10
1025;DHT22;501;48.214;11.350;2023-01-19T06:24:30;-0.60;46.70
1025;DHT22;501;48.214;11.350;2023-01-19T06:26:57;-0.60;46.80
1025;DHT22;501;48.214;11.350;2023-01-19T06:29:23;-0.60;46.90
1025;DHT22;501;48.214;11.350;2023-01-19T06:31:48;-0.60;47.10
1025;DHT22;501;48.214;11.350;2023-01-19T06:34:14;-0.60;47.00
1025;DHT22;501;48.214;11.350;2023-01-19T06:36:40;-0.60;46.80
1025;DHT22;501;48.214;11.350;2023-01-19T06:39:06;-0.60;47.00
1025;DHT22;501;48.214;11.350;2023-01-19T06:41:32;-0.60;47.30
1025;DHT22;501;48.214;11.350;2023-01-19T06:43:58;-0.70;47.30
1025;DHT22;501;48.214;11.350;2023-01-19T06:46:23;-0.60;47.30
1025;DHT22;501;48.214;11.350;2023-01-19T06:48:50;-0.70;47.00
1025;DHT22;501;48.214;11.350;2023-01-19T06:51:16;-0.70;47.00
1025;DHT22;501;48.214;11.350;2023-01-19T06:53:42;-0.70;47.70
1025;DHT22;501;48.214;11.350;2023-01-19T06:56:08;-0.70;47.00
1025;DHT22;501;48.214;11.350;2023-01-19T06:58:34;-0.70;46.90
1025;DHT22;501;48.214;11.350;2023-01-19T07:01:06;-0.70;46.30
1025;DHT22;501;48.214;11.350;2023-01-19T07:03:33;-0.70;46.10
1025;DHT22;501;48.214;11.350;2023-01-19T07:05:59;-0.70;45.90
1025;DHT22;501;48.214;11.350;2023-01-19T07:08:27;-0.70;45.60
1025;DHT22;501;48.214;11.350;2023-01-19T07:11:02;-0.70;45.80
1025;DHT22;501;48.214;11.350;2023-01-19T07:13:29;-0.70;45.60
1025;DHT22;501;48.214;11.350;2023-01-19T07:15:55;-0.80;45.30
1025;DHT22;501;48.214;11.350;2023-01-19T07:18:20;-0.80;45.60
1025;DHT22;501;48.214;11.350;2023-01-19T07:20:46;-0.80;45.60
1025;DHT22;501;48.214;11.350;2023-01-19T07:23:14;-0.90;45.90
1025;DHT22;501;48.214;11.350;2023-01-19T07:25:40;-0.80;45.70
1025;DHT22;501;48.214;11.350;2023-01-19T07:28:06;-0.80;45.60
1025;DHT22;501;48.214;11.350;2023-01-19T07:30:31;-0.90;45.60
1025;DHT22;501;48.214;11.350;2023-01-19T07:32:57;-0.90;45.40
1025;DHT22;501;48.214;11.350;2023-01-19T07:35:23;-0.80;45.20
1025;DHT22;501;48.214;11.350;2023-01-19T07:37:49;-0.90;45.30
1025;DHT22;501;48.214;11.350;2023-01-19T07:40:15;-0.90;45.30
1025;DHT22;501;48.214;11.350;2023-01-19T07:42:48;-0.90;45.10
1025;DHT22;501;48.214;11.350;2023-01-19T07:45:19;-0.90;46.00
1025;DHT22;501;48.214;11.350;2023-01-19T07:47:46;-0.90;45.40
1025;DHT22;501;48.214;11.350;2023-01-19T07:50:13;-0.90;45.40
1025;DHT22;501;48.214;11.350;2023-01-19T07:52:39;-0.90;44.70
1025;DHT22;501;48.214;11.350;2023-01-19T07:55:06;-0.80;44.60
1025;DHT22;501;48.214;11.350;2023-01-19T07:57:32;-0.90;44.50
1025;DHT22;501;48.214;11.350;2023-01-19T07:59:57;-0.90;44.20
1025;DHT22;501;48.214;11.350;2023-01-19T08:02:23;-0.90;44.50
1025;DHT22;501;48.214;11.350;2023-01-19T08:04:48;-0.90;44.40
1025;DHT22;501;48.214;11.350;2023-01-19T08:07:14;-0.90;44.80
1025;DHT22;501;48.214;11.350;2023-01-19T08:09:40;-0.90;45.00
1025;DHT22;501;48.214;11.350;2023-01-19T08:12:05;-0.90;44.40
1025;DHT22;501;48.214;11.350;2023-01-19T08:14:31;-0.90;44.50
1025;DHT22;501;48.214;11.350;2023-01-19T08:17:01;-0.80;44.50
1025;DHT22;501;48.214;11.350;2023-01-19T08:19:27;-0.80;44.20
1025;DHT22;501;48.214;11.350;2023-01-19T08:21:53;-0.80;44.50
1025;DHT22;501;48.214;11.350;2023-01-19T08:24:21;-0.80;44.20
1025;DHT22;501;48.214;11.350;2023-01-19T08:26:48;-0.80;44.10
1025;DHT22;501;48.214;11.350;2023-01-19T08:29:14;-0.80;43.90
1025;DHT22;501;48.214;11.350;2023-01-19T08:31:39;-0.80;43.80
1025;DHT22;501;48.214;11.350;2023-01-19T08:34:06;-0.80;43.80
1025;DHT22;501;48.214;11.350;2023-01-19T08:36:32;-0.80;43.60
1025;DHT22;501;48.214;11.350;2023-01-19T08:38:58;-0.80;44.10
1025;DHT22;501;48.214;11.350;2023-01-19T08:41:24;-0.80;43.60
1025;DHT22;501;48.214;11.350;2023-01-19T08:43:49;-0.70;43.20
1025;DHT22;501;48.214;11.350;2023-01-19T08:46:15;-0.70;43.30
1025;DHT22;501;48.214;11.350;2023-01-19T08:48:42;-0.70;43.40
1025;DHT22;501;48.214;11.350;2023-01-19T08:51:10;-0.60;43.40
1025;DHT22;501;48.214;11.350;2023-01-19T08:53:35;-0.60;43.20
1025;DHT22;501;48.214;11.350;2023-01-19T08:56:01;-0.50;43.00
1025;DHT22;501;48.214;11.350;2023-01-19T08:58:27;-0.50;42.70
1025;DHT22;501;48.214;11.350;2023-01-19T09:00:54;-0.50;41.80
1025;DHT22;501;48.214;11.350;2023-01-19T09:03:20;-0.50;42.00
1025;DHT22;501;48.214;11.350;2023-01-19T09:05:47;-0.40;42.30
1025;DHT22;501;48.214;11.350;2023-01-19T09:08:13;-0.40;41.70
1025;DHT22;501;48.214;11.350;2023-01-19T09:10:46;-0.30;41.90
1025;DHT22;501;48.214;11.350;2023-01-19T09:13:13;-0.30;41.30
1025;DHT22;501;48.214;11.350;2023-01-19T09:15:39;-0.30;40.80
1025;DHT22;501;48.214;11.350;2023-01-19T09:18:10;-0.30;41.10
1025;DHT22;501;48.214;11.350;2023-01-19T09:20:41;-0.20;41.30
1025;DHT22;501;48.214;11.350;2023-01-19T09:23:09;-0.20;40.00
1025;DHT22;501;48.214;11.350;2023-01-19T09:25:39;-0.20;40.00
1025;DHT22;501;48.214;11.350;2023-01-19T09:28:06;-0.30;40.80
1025;DHT22;501;48.214;11.350;2023-01-19T09:30:34;-0.30;40.40
1025;DHT22;501;48.214;11.350;2023-01-19T09:33:11;-0.30;41.30
1025;DHT22;501;48.214;11.350;2023-01-19T09:35:38;-0.30;41.30
1025;DHT22;501;48.214;11.350;2023-01-19T09:38:04;-0.30;40.30
1025;DHT22;501;48.214;11.350;2023-01-19T09:40:32;-0.30;40.40
1025;DHT22;501;48.214;11.350;2023-01-19T09:43:20;-0.30;40.70
1025;DHT22;501;48.214;11.350;2023-01-19T09:45:57;-0.30;41.10
1025;DHT22;501;48.214;11.350;2023-01-19T09:48:44;-0.20;40.20
1025;DHT22;501;48.214;11.350;2023-01-19T09:51:18;-0.20;40.10
1025;DHT22;501;48.214;11.350;2023-01-19T09:53:51;-0.20;40.10
1025;DHT22;501;48.214;11.350;2023-01-19T09:56:21;-0.10;39.80
1025;DHT22;501;48.214;11.350;2023-01-19T09:58:48;-0.10;38.90
1025;DHT22;501;48.214;11.350;2023-01-19T10:03:54;-0.10;39.20
1025;DHT22;501;48.214;11.350;2023-01-19T10:06:28;-0.10;39.40
1025;DHT22;501;48.214;11.350;2023-01-19T10:09:05;-0.10;39.80
1025;DHT22;501;48.214;11.350;2023-01-19T10:11:39;-0.10;39.60
1025;DHT22;501;48.214;11.350;2023-01-19T10:14:22;0.00;39.10
1025;DHT22;501;48.214;11.350;2023-01-19T10:17:02;0.00;40.10
1025;DHT22;501;48.214;11.350;2023-01-19T10:19:32;0.10;39.30
1025;DHT22;501;48.214;11.350;2023-01-19T10:22:11;0.10;38.00
1025;DHT22;501;48.214;11.350;2023-01-19T10:24:42;0.20;37.00
1025;DHT22;501;48.214;11.350;2023-01-19T10:27:16;0.20;37.60
1025;DHT22;501;48.214;11.350;2023-01-19T10:29:43;0.20;37.70
1025;DHT22;501;48.214;11.350;2023-01-19T10:32:30;0.30;37.40
1025;DHT22;501;48.214;11.350;2023-01-19T10:34:57;0.30;36.60
1025;DHT22;501;48.214;11.350;2023-01-19T10:37:31;0.30;36.80
1025;DHT22;501;48.214;11.350;2023-01-19T10:42:51;0.50;36.30
1025;DHT22;501;48.214;11.350;2023-01-19T10:45:19;0.50;36.90
1025;DHT22;501;48.214;11.350;2023-01-19T10:47:46;0.50;36.10
1025;DHT22;501;48.214;11.350;2023-01-19T10:50:32;0.60;35.20
1025;DHT22;501;48.214;11.350;2023-01-19T10:53:00;0.60;36.00
1025;DHT22;501;48.214;11.350;2023-01-19T10:55:31;0.60;34.20
1025;DHT22;501;48.214;11.350;2023-01-19T10:57:58;0.70;35.20
1025;DHT22;501;48.214;11.350;2023-01-19T11:00:34;0.70;33.90
1025;DHT22;501;48.214;11.350;2023-01-19T11:03:03;0.80;34.30
1025;DHT22;501;48.214;11.350;2023-01-19T11:05:31;0.80;34.30
1025;DHT22;501;48.214;11.350;2023-01-19T11:07:57;0.90;33.40
1025;DHT22;501;48.214;11.350;2023-01-19T11:10:25;0.90;34.30
1025;DHT22;501;48.214;11.350;2023-01-19T11:15:33;1.10;33.60
1025;DHT22;501;48.214;11.350;2023-01-19T11:18:02;1.20;33.70
1025;DHT22;501;48.214;11.350;2023-01-19T11:20:51;1.30;33.80
1025;DHT22;501;48.214;11.350;2023-01-19T11:23:35;1.30;33.10
1025;DHT22;501;48.214;11.350;2023-01-19T11:26:08;1.40;32.90
1025;DHT22;501;48.214;11.350;2023-01-19T11:28:44;1.40;32.10
1025;DHT22;501;48.214;11.350;2023-01-19T11:36:21;1.60;31.80
1025;DHT22;501;48.214;11.350;2023-01-19T11:38:52;1.70;32.30
1025;DHT22;501;48.214;11.350;2023-01-19T11:43:49;1.80;31.40
1025;DHT22;501;48.214;11.350;2023-01-19T11:46:16;1.80;30.80
1025;DHT22;501;48.214;11.350;2023-01-19T11:48:51;1.90;31.50
1025;DHT22;501;48.214;11.350;2023-01-19T11:51:22;1.90;29.90
1025;DHT22;501;48.214;11.350;2023-01-19T11:53:51;1.90;30.70
1025;DHT22;501;48.214;11.350;2023-01-19T11:56:21;1.90;30.70
1025;DHT22;501;48.214;11.350;2023-01-19T11:58:48;2.00;31.00
1025;DHT22;501;48.214;11.350;2023-01-19T12:01:33;1.90;30.50
1025;DHT22;501;48.214;11.350;2023-01-19T12:06:37;1.90;30.10
1025;DHT22;501;48.214;11.350;2023-01-19T12:11:39;2.00;30.20
1025;DHT22;501;48.214;11.350;2023-01-19T12:14:18;2.00;29.90
1025;DHT22;501;48.214;11.350;2023-01-19T12:16:45;2.00;30.50
1025;DHT22;501;48.214;11.350;2023-01-19T12:19:22;2.10;30.60
1025;DHT22;501;48.214;11.350;2023-01-19T12:21:49;2.10;29.60
1025;DHT22;501;48.214;11.350;2023-01-19T12:24:40;2.10;30.50
1025;DHT22;501;48.214;11.350;2023-01-19T12:27:41;2.10;29.90
1025;DHT22;501;48.214;11.350;2023-01-19T12:32:41;2.20;31.00
1025;DHT22;501;48.214;11.350;2023-01-19T12:46:34;2.60;28.70
1025;DHT22;501;48.214;11.350;2023-01-19T12:58:20;2.90;27.80
1025;DHT22;501;48.214;11.350;2023-01-19T13:00:48;3.10;27.80
1025;DHT22;501;48.214;11.350;2023-01-19T13:16:22;3.50;27.40
1025;DHT22;501;48.214;11.350;2023-01-19T13:18:48;3.50;27.40
1025;DHT22;501;48.214;11.350;2023-01-19T13:24:07;3.10;27.20
1025;DHT22;501;48.214;11.350;2023-01-19T13:26:38;3.00;27.10
1025;DHT22;501;48.214;11.350;2023-01-19T13:29:30;2.90;27.10
1025;DHT22;501;48.214;11.350;2023-01-19T13:32:03;2.80;27.60
1025;DHT22;501;48.214;11.350;2023-01-19T13:34:53;2.70;26.90
1025;DHT22;501;48.214;11.350;2023-01-19T13:37:23;2.50;27.70
1025;DHT22;501;48.214;11.350;2023-01-19T13:39:51;2.40;27.90
1025;DHT22;501;48.214;11.350;2023-01-19T13:42:36;2.30;27.60
1025;DHT22;501;48.214;11.350;2023-01-19T13:45:29;2.30;28.60
1025;DHT22;501;48.214;11.350;2023-01-19T13:47:53;2.30;28.30
1025;DHT22;501;48.214;11.350;2023-01-19T13:50:24;2.20;29.00
1025;DHT22;501;48.214;11.350;2023-01-19T13:52:50;2.10;28.10
1025;DHT22;501;48.214;11.350;2023-01-19T13:55:18;2.10;27.80
1025;DHT22;501;48.214;11.350;2023-01-19T13:57:46;2.10;28.20
1025;DHT22;501;48.214;11.350;2023-01-19T14:02:49;2.00;28.30
1025;DHT22;501;48.214;11.350;2023-01-19T14:07:59;2.00;27.70
1025;DHT22;501;48.214;11.350;2023-01-19T14:10:25;2.00;28.70
1025;DHT22;501;48.214;11.350;2023-01-19T14:13:24;2.00;28.70
1025;DHT22;501;48.214;11.350;2023-01-19T14:15:51;2.00;29.40
1025;DHT22;501;48.214;11.350;2023-01-19T14:20:59;2.00;29.10
1025;DHT22;501;48.214;11.350;2023-01-19T14:23:46;2.00;29.00
1025;DHT22;501;48.214;11.350;2023-01-19T14:36:59;1.80;29.50
1025;DHT22;501;48.214;11.350;2023-01-19T14:39:27;1.80;29.70
1025;DHT22;501;48.214;11.350;2023-01-19T14:41:57;1.80;29.70
1025;DHT22;501;48.214;11.350;2023-01-19T14:46:49;1.70;29.30
1025;DHT22;501;48.214;11.350;2023-01-19T14:49:19;1.70;29.30
1025;DHT22;501;48.214;11.350;2023-01-19T14:51:45;1.70;30.00
1025;DHT22;501;48.214;11.350;2023-01-19T14:54:16;1.60;30.00
1025;DHT22;501;48.214;11.350;2023-01-19T14:56:42;1.60;29.90
1025;DHT22;501;48.214;11.350;2023-01-19T14:59:09;1.60;29.90
1025;DHT22;501;48.214;11.350;2023-01-19T15:01:35;1.60;29.60
1025;DHT22;501;48.214;11.350;2023-01-19T15:04:01;1.70;29.40
1025;DHT22;501;48.214;11.350;2023-01-19T15:06:26;1.60;28.90
1025;DHT22;501;48.214;11.350;2023-01-19T15:08:53;1.60;29.60
1025;DHT22;501;48.214;11.350;2023-01-19T15:11:30;1.50;29.90
1025;DHT22;501;48.214;11.350;2023-01-19T15:13:57;1.50;30.20
1025;DHT22;501;48.214;11.350;2023-01-19T15:16:25;1.50;30.20
1025;DHT22;501;48.214;11.350;2023-01-19T15:18:50;1.50;29.60
1025;DHT22;501;48.214;11.350;2023-01-19T15:21:21;1.40;30.00
1025;DHT22;501;48.214;11.350;2023-01-19T15:23:53;1.40;30.30
1025;DHT22;501;48.214;11.350;2023-01-19T15:26:21;1.30;30.60
1025;DHT22;501;48.214;11.350;2023-01-19T15:28:48;1.30;30.60
1025;DHT22;501;48.214;11.350;2023-01-19T15:31:15;1.30;30.80
1025;DHT22;501;48.214;11.350;2023-01-19T15:33:42;1.30;31.00
1025;DHT22;501;48.214;11.350;2023-01-19T15:36:12;1.30;31.30
1025;DHT22;501;48.214;11.350;2023-01-19T15:38:38;1.30;30.90
1025;DHT22;501;48.214;11.350;2023-01-19T15:41:12;1.30;31.20
1025;DHT22;501;48.214;11.350;2023-01-19T15:43:38;1.30;31.50
1025;DHT22;501;48.214;11.350;2023-01-19T15:46:05;1.30;32.20
1025;DHT22;501;48.214;11.350;2023-01-19T15:48:31;1.30;31.90
1025;DHT22;501;48.214;11.350;2023-01-19T15:50:56;1.30;31.60
1025;DHT22;501;48.214;11.350;2023-01-19T15:53:22;1.30;31.70
1025;DHT22;501;48.214;11.350;2023-01-19T15:55:50;1.30;31.30
1025;DHT22;501;48.214;11.350;2023-01-19T15:58:16;1.20;30.60
1025;DHT22;501;48.214;11.350;2023-01-19T16:00:43;1.20;31.20
1025;DHT22;501;48.214;11.350;2023-01-19T16:03:09;1.20;30.90
1025;DHT22;501;48.214;11.350;2023-01-19T16:05:35;1.20;30.10
1025;DHT22;501;48.214;11.350;2023-01-19T16:08:01;1.10;30.50
1025;DHT22;501;48.214;11.350;2023-01-19T16:10:26;1.20;31.00
1025;DHT22;501;48.214;11.350;2023-01-19T16:12:52;1.10;30.50
1025;DHT22;501;48.214;11.350;2023-01-19T16:15:18;1.10;30.80
1025;DHT22;501;48.214;11.350;2023-01-19T16:17:44;1.10;31.00
1025;DHT22;501;48.214;11.350;2023-01-19T16:20:10;1.10;31.10
1025;DHT22;501;48.214;11.350;2023-01-19T16:22:37;1.20;31.70
1025;DHT22;501;48.214;11.350;2023-01-19T16:25:03;1.10;31.20
1025;DHT22;501;48.214;11.350;2023-01-19T16:27:29;1.10;31.60
1025;DHT22;501;48.214;11.350;2023-01-19T16:29:55;1.10;31.70
1025;DHT22;501;48.214;11.350;2023-01-19T16:32:22;1.10;32.00
1025;DHT22;501;48.214;11.350;2023-01-19T16:34:47;1.10;32.30
1025;DHT22;501;48.214;11.350;2023-01-19T16:37:13;1.10;32.30
1025;DHT22;501;48.214;11.350;2023-01-19T16:39:39;1.20;31.90
1025;DHT22;501;48.214;11.350;2023-01-19T16:42:05;1.20;31.90
1025;DHT22;501;48.214;11.350;2023-01-19T16:44:30;1.20;31.20
1025;DHT22;501;48.214;11.350;2023-01-19T16:46:56;1.20;31.50
1025;DHT22;501;48.214;11.350;2023-01-19T16:49:24;1.20;31.20
1025;DHT22;501;48.214;11.350;2023-01-19T16:51:50;1.20;31.50
1025;DHT22;501;48.214;11.350;2023-01-19T16:54:21;1.20;31.90
1025;DHT22;501;48.214;11.350;2023-01-19T16:56:48;1.20;32.30
1025;DHT22;501;48.214;11.350;2023-01-19T16:59:15;1.20;31.90
1025;DHT22;501;48.214;11.350;2023-01-19T17:01:41;1.20;31.80
1025;DHT22;501;48.214;11.350;2023-01-19T17:04:12;1.20;31.90
1025;DHT22;501;48.214;11.350;2023-01-19T17:06:38;1.20;31.00
1025;DHT22;501;48.214;11.350;2023-01-19T17:09:04;1.20;31.40
1025;DHT22;501;48.214;11.350;2023-01-19T17:11:32;1.20;31.00
1025;DHT22;501;48.214;11.350;2023-01-19T17:14:01;1.10;31.30
1025;DHT22;501;48.214;11.350;2023-01-19T17:16:29;1.10;31.40
1025;DHT22;501;48.214;11.350;2023-01-19T17:18:56;1.10;31.40
1025;DHT22;501;48.214;11.350;2023-01-19T17:21:22;1.20;31.50
1025;DHT22;501;48.214;11.350;2023-01-19T17:23:50;1.20;31.30
1025;DHT22;501;48.214;11.350;2023-01-19T17:26:18;1.10;31.00
1025;DHT22;501;48.214;11.350;2023-01-19T17:28:43;1.10;31.00
1025;DHT22;501;48.214;11.350;2023-01-19T17:31:12;1.10;31.30
1025;DHT22;501;48.214;11.350;2023-01-19T17:33:38;1.10;31.10
1025;DHT22;501;48.214;11.350;2023-01-19T17:36:09;1.00;31.20
1025;DHT22;501;48.214;11.350;2023-01-19T17:38:37;1.00;31.90
1025;DHT22;501;48.214;11.350;2023-01-19T17:41:30;1.00;31.70
1025;DHT22;501;48.214;11.350;2023-01-19T17:43:57;1.00;32.20
1025;DHT22;501;48.214;11.350;2023-01-19T17:46:25;1.00;31.90
1025;DHT22;501;48.214;11.350;2023-01-19T17:48:55;1.00;32.30
1025;DHT22;501;48.214;11.350;2023-01-19T17:51:21;1.00;32.20
1025;DHT22;501;48.214;11.350;2023-01-19T17:53:48;1.00;32.60
1025;DHT22;501;48.214;11.350;2023-01-19T17:56:16;0.90;31.70
1025;DHT22;501;48.214;11.350;2023-01-19T17:58:43;0.90;31.80